Oswego, Oregon
Current Conditions -  °F | °C
As of 4:13 AM on Monday 24 Nov 2014 (Local Time) from KUAO Reporting Station
Haze Haze  
Wind Chill: 43°   Ceiling: 2100
Heat Index: 43°   Visibility: 3mi
Dew Point: 43°   Wind: 0mph
Humidity: 100%   Direction: NA
Pressure: 30.38"   Gusts: NA
Location:  45.4082°N, 122.683°W
Report Text: KUAO 241213Z AUTO 00000KT 3SM BR OVC021 06/06 A3038 RMK AO2 T00610061
Loading
Personal Weather Stations






























Interactive Weather Map New forecast layout! Learn more

10-Day Weather Forecast

Advertisements
Track Severe Weather on mobile